createdAt,value
2022-07-26T00:01:34.741Z,19.30
2022-07-26T00:04:04.790Z,19.40
2022-07-26T00:06:31.808Z,19.30
2022-07-26T00:08:58.777Z,19.30
2022-07-26T00:11:27.131Z,19.40
2022-07-26T00:13:54.548Z,19.40
2022-07-26T00:16:23.409Z,19.40
2022-07-26T00:18:50.466Z,19.40
2022-07-26T00:21:17.582Z,19.40
2022-07-26T00:23:44.559Z,19.40
2022-07-26T00:26:11.625Z,19.40
2022-07-26T00:28:39.172Z,19.20
2022-07-26T00:31:06.308Z,19.30
2022-07-26T00:33:33.695Z,19.30
2022-07-26T00:36:00.858Z,19.30
2022-07-26T00:38:27.958Z,19.30
2022-07-26T00:40:55.016Z,19.10
2022-07-26T00:43:22.144Z,19.20
2022-07-26T00:45:50.687Z,19.10
2022-07-26T00:48:18.694Z,19.20
2022-07-26T00:50:46.530Z,19.20
2022-07-26T00:53:13.728Z,19.20
2022-07-26T00:55:40.986Z,19.20
2022-07-26T00:58:08.088Z,19.30
2022-07-26T01:00:35.253Z,19.20
2022-07-26T01:03:02.716Z,19.10
2022-07-26T01:05:30.295Z,19.10
2022-07-26T01:07:58.029Z,19.20
2022-07-26T01:10:25.325Z,19.20
2022-07-26T01:12:52.278Z,19.20
2022-07-26T01:15:19.425Z,19.20
2022-07-26T01:17:47.384Z,19.20
2022-07-26T01:20:15.182Z,19.20
2022-07-26T01:22:42.209Z,19.20
2022-07-26T01:25:09.897Z,19.20
2022-07-26T01:27:39.784Z,19.20
2022-07-26T01:30:11.666Z,19.20
2022-07-26T01:32:39.355Z,19.10
2022-07-26T01:35:07.450Z,19.10
2022-07-26T01:37:34.447Z,19.10
2022-07-26T01:40:02.029Z,19.10
2022-07-26T01:42:29.422Z,19.10
2022-07-26T01:44:56.602Z,19.20
2022-07-26T01:47:23.888Z,19.20
2022-07-26T01:49:50.817Z,19.10
2022-07-26T01:52:18.828Z,19.10
2022-07-26T01:54:45.855Z,19.20
2022-07-26T01:57:12.861Z,19.10
2022-07-26T01:59:39.853Z,19.00
2022-07-26T02:02:06.802Z,19.20
2022-07-26T02:04:52.268Z,19.10
2022-07-26T02:07:19.262Z,19.00
2022-07-26T02:09:46.634Z,19.00
2022-07-26T02:12:15.516Z,19.00
2022-07-26T02:14:42.534Z,18.80
2022-07-26T02:17:09.732Z,18.90
2022-07-26T02:19:37.619Z,18.90
2022-07-26T02:22:05.374Z,18.90
2022-07-26T02:24:33.358Z,18.80
2022-07-26T02:27:01.476Z,18.90
2022-07-26T02:29:28.878Z,18.80
2022-07-26T02:31:58.265Z,18.70
2022-07-26T02:34:27.550Z,18.80
2022-07-26T02:36:55.418Z,18.70
2022-07-26T02:39:28.359Z,18.70
2022-07-26T02:42:01.089Z,18.80
2022-07-26T02:44:28.960Z,18.90
2022-07-26T02:46:56.059Z,18.90
2022-07-26T02:49:23.040Z,18.90
2022-07-26T02:51:50.140Z,18.80
2022-07-26T02:54:17.358Z,18.90
2022-07-26T02:56:44.393Z,18.90
2022-07-26T02:59:11.293Z,18.80
2022-07-26T03:01:39.790Z,18.80
2022-07-26T03:04:08.176Z,18.90
2022-07-26T03:06:35.605Z,18.90
2022-07-26T03:09:03.408Z,18.90
2022-07-26T03:11:30.469Z,18.90
2022-07-26T03:13:57.573Z,19.00
2022-07-26T03:16:28.989Z,19.00
2022-07-26T03:18:57.031Z,18.90
2022-07-26T03:21:24.583Z,18.90
2022-07-26T03:23:51.585Z,18.80
2022-07-26T03:26:18.547Z,18.90
2022-07-26T03:28:45.668Z,18.90
2022-07-26T03:31:13.371Z,18.90
2022-07-26T03:33:41.489Z,19.00
2022-07-26T03:36:11.574Z,18.90
2022-07-26T03:38:42.282Z,19.00
2022-07-26T03:41:13.690Z,19.00
2022-07-26T03:43:41.430Z,18.90
2022-07-26T03:46:08.673Z,18.90
2022-07-26T03:48:35.740Z,19.00
2022-07-26T03:51:02.872Z,19.00
2022-07-26T03:53:30.085Z,19.00
2022-07-26T03:56:16.140Z,18.90
2022-07-26T03:58:43.266Z,18.90
2022-07-26T04:01:10.630Z,18.90
2022-07-26T04:03:37.569Z,18.90
2022-07-26T04:06:05.341Z,18.80
2022-07-26T04:08:32.899Z,18.80
2022-07-26T04:10:59.954Z,18.80
2022-07-26T04:13:27.609Z,18.70
2022-07-26T04:15:54.645Z,18.70
2022-07-26T04:18:22.146Z,18.70
2022-07-26T04:20:51.874Z,18.70
2022-07-26T04:23:18.940Z,18.70
2022-07-26T04:25:45.877Z,18.70
2022-07-26T04:28:13.222Z,18.70
2022-07-26T04:30:41.049Z,18.70
2022-07-26T04:33:08.540Z,18.70
2022-07-26T04:35:36.347Z,18.70
2022-07-26T04:38:04.190Z,18.70
2022-07-26T04:40:33.752Z,18.70
2022-07-26T04:43:02.168Z,18.70
2022-07-26T04:45:30.011Z,18.80
2022-07-26T04:47:57.847Z,18.80
2022-07-26T04:50:25.040Z,18.80
2022-07-26T04:52:52.728Z,18.70
2022-07-26T04:55:20.138Z,18.80
2022-07-26T04:57:47.943Z,18.70
2022-07-26T05:00:22.965Z,18.80
2022-07-26T05:02:55.516Z,18.80
2022-07-26T05:05:24.208Z,18.80
2022-07-26T05:07:53.645Z,18.80
2022-07-26T05:10:22.716Z,18.80
2022-07-26T05:12:50.014Z,18.80
2022-07-26T05:15:16.988Z,18.80
2022-07-26T05:17:44.478Z,18.80
2022-07-26T05:20:15.013Z,18.80
2022-07-26T05:22:42.845Z,18.90
2022-07-26T05:25:10.820Z,19.00
2022-07-26T05:27:39.087Z,19.10
2022-07-26T05:30:06.594Z,19.00
2022-07-26T05:32:33.575Z,19.20
2022-07-26T05:35:00.589Z,19.20
2022-07-26T05:37:27.883Z,19.30
2022-07-26T05:39:55.119Z,19.30
2022-07-26T05:42:22.182Z,19.30
2022-07-26T05:44:49.177Z,19.30
2022-07-26T05:47:16.738Z,19.30
2022-07-26T05:49:43.721Z,19.30
2022-07-26T05:52:10.769Z,19.30
2022-07-26T05:54:37.899Z,19.40
2022-07-26T05:57:05.012Z,19.40
2022-07-26T05:59:32.216Z,19.40
2022-07-26T06:01:59.687Z,19.30
2022-07-26T06:04:27.758Z,19.40
2022-07-26T06:06:55.704Z,19.50
2022-07-26T06:09:27.145Z,19.40
2022-07-26T06:11:54.745Z,19.40
2022-07-26T06:14:22.644Z,19.40
2022-07-26T06:16:50.092Z,19.40
2022-07-26T06:19:17.938Z,19.60
2022-07-26T06:21:47.713Z,19.70
2022-07-26T06:24:14.774Z,19.60
2022-07-26T06:26:41.725Z,19.60
2022-07-26T06:29:11.668Z,20.00
2022-07-26T06:31:38.818Z,20.10
2022-07-26T06:34:10.023Z,20.20
2022-07-26T06:36:38.721Z,20.20
2022-07-26T06:39:05.872Z,20.20
2022-07-26T06:41:32.921Z,20.30
2022-07-26T06:43:59.869Z,20.30
2022-07-26T06:46:27.493Z,20.30
2022-07-26T06:48:56.863Z,20.00
2022-07-26T06:51:24.277Z,20.00
2022-07-26T06:53:51.269Z,20.10
2022-07-26T06:56:19.458Z,20.10
2022-07-26T06:58:48.003Z,20.10
2022-07-26T07:01:58.636Z,20.20
2022-07-26T07:04:05.347Z,20.00
2022-07-26T07:06:32.865Z,20.10
2022-07-26T07:08:59.806Z,20.00
2022-07-26T07:11:26.811Z,20.30
2022-07-26T07:13:55.261Z,20.10
2022-07-26T07:16:22.236Z,19.70
2022-07-26T07:18:52.388Z,19.60
2022-07-26T07:21:19.402Z,19.30
2022-07-26T07:23:46.491Z,19.40
2022-07-26T07:26:13.479Z,19.20
2022-07-26T07:28:40.557Z,19.00
2022-07-26T07:31:07.896Z,18.90
2022-07-26T07:33:43.683Z,19.00
2022-07-26T07:36:20.591Z,18.90
2022-07-26T07:38:48.732Z,18.90
2022-07-26T07:41:16.591Z,18.90
2022-07-26T07:43:43.648Z,19.20
2022-07-26T07:46:10.688Z,19.40
2022-07-26T07:48:41.078Z,19.50
2022-07-26T07:51:11.963Z,19.80
2022-07-26T07:53:39.704Z,20.00
2022-07-26T07:56:06.785Z,20.10
2022-07-26T07:58:34.347Z,20.00
2022-07-26T08:01:01.503Z,20.00
2022-07-26T08:03:38.941Z,20.20
2022-07-26T08:06:08.545Z,20.30
2022-07-26T08:08:37.165Z,20.50
2022-07-26T08:11:05.194Z,20.50
2022-07-26T08:13:35.324Z,20.70
2022-07-26T08:16:04.871Z,20.70
2022-07-26T08:18:39.596Z,20.70
2022-07-26T08:21:16.185Z,20.70
2022-07-26T08:23:43.175Z,20.60
2022-07-26T08:26:10.625Z,20.70
2022-07-26T08:28:47.557Z,21.10
2022-07-26T08:31:16.183Z,21.40
2022-07-26T08:33:46.407Z,21.50
2022-07-26T08:36:16.217Z,21.50
2022-07-26T08:38:44.613Z,21.10
2022-07-26T08:41:14.768Z,21.30
2022-07-26T08:43:51.141Z,21.50
2022-07-26T08:46:26.888Z,21.60
2022-07-26T08:48:55.802Z,21.50
2022-07-26T08:51:24.710Z,21.30
2022-07-26T08:54:03.755Z,21.50
2022-07-26T08:56:36.849Z,21.10
2022-07-26T08:59:19.622Z,21.20
2022-07-26T09:02:02.519Z,21.20
2022-07-26T09:04:43.967Z,21.20
2022-07-26T09:07:18.935Z,21.20
2022-07-26T09:09:55.215Z,21.20
2022-07-26T09:12:23.516Z,21.00
2022-07-26T09:14:51.091Z,21.00
2022-07-26T09:17:20.797Z,21.10
2022-07-26T09:20:07.858Z,21.10
2022-07-26T09:22:35.501Z,20.90
2022-07-26T09:25:02.669Z,20.90
2022-07-26T09:27:38.760Z,20.50
2022-07-26T09:30:08.142Z,20.40
2022-07-26T09:32:36.839Z,20.60
2022-07-26T09:35:49.763Z,20.90
2022-07-26T09:38:15.866Z,21.10
2022-07-26T09:40:44.901Z,21.10
2022-07-26T09:43:19.836Z,20.60
2022-07-26T09:46:05.378Z,20.20
2022-07-26T09:49:06.978Z,20.10
2022-07-26T09:51:46.113Z,20.00
2022-07-26T09:54:18.984Z,19.50
2022-07-26T09:56:52.421Z,19.60
2022-07-26T09:59:24.389Z,19.50
2022-07-26T10:01:54.285Z,19.50
2022-07-26T10:04:24.337Z,19.20
2022-07-26T10:06:52.017Z,19.40
2022-07-26T10:09:19.610Z,19.50
2022-07-26T10:12:00.648Z,19.40
2022-07-26T10:14:33.761Z,19.60
2022-07-26T10:17:21.487Z,19.30
2022-07-26T10:19:57.177Z,19.60
2022-07-26T10:22:31.120Z,19.70
2022-07-26T10:25:18.370Z,19.60
2022-07-26T10:27:46.588Z,19.70
2022-07-26T10:30:19.485Z,19.90
2022-07-26T10:32:58.463Z,20.20
2022-07-26T10:35:36.755Z,20.30
2022-07-26T10:38:22.505Z,20.30
2022-07-26T10:40:56.311Z,20.60
2022-07-26T10:43:40.156Z,21.10
2022-07-26T10:46:16.795Z,21.60
2022-07-26T10:48:56.090Z,21.70
2022-07-26T10:51:29.699Z,21.70
2022-07-26T10:54:05.763Z,21.70
2022-07-26T10:56:34.230Z,21.60
2022-07-26T10:59:02.828Z,21.60
2022-07-26T11:01:39.849Z,21.60
2022-07-26T11:04:20.151Z,21.70
2022-07-26T11:06:47.187Z,21.30
2022-07-26T11:09:14.871Z,21.40
2022-07-26T11:11:47.176Z,21.20
2022-07-26T11:14:17.616Z,21.30
2022-07-26T11:16:48.047Z,21.20
2022-07-26T11:19:19.766Z,20.80
2022-07-26T11:21:53.119Z,20.80
2022-07-26T11:24:21.966Z,20.70
2022-07-26T11:26:50.038Z,20.60
2022-07-26T11:29:38.484Z,20.60
2022-07-26T11:32:17.991Z,20.60
2022-07-26T11:34:45.773Z,20.50
2022-07-26T11:37:13.592Z,20.50
2022-07-26T11:39:41.169Z,20.60
2022-07-26T11:42:10.920Z,20.70
2022-07-26T11:44:38.441Z,20.70
2022-07-26T11:47:14.327Z,20.90
2022-07-26T11:49:52.074Z,21.10
2022-07-26T11:52:32.017Z,21.20
2022-07-26T11:55:00.076Z,21.00
2022-07-26T11:57:31.805Z,21.00
2022-07-26T12:00:00.469Z,21.00
2022-07-26T12:02:30.374Z,20.90
2022-07-26T12:05:21.187Z,20.80
2022-07-26T12:08:03.914Z,20.70
2022-07-26T12:10:32.363Z,20.80
2022-07-26T12:13:16.279Z,20.80
2022-07-26T12:15:52.369Z,20.70
2022-07-26T12:18:27.474Z,20.70
2022-07-26T12:21:08.372Z,20.60
2022-07-26T12:23:54.056Z,20.40
2022-07-26T12:26:26.371Z,20.50
2022-07-26T12:28:55.908Z,20.50
2022-07-26T12:31:31.875Z,20.50
2022-07-26T12:33:59.574Z,20.60
2022-07-26T12:36:29.651Z,20.40
2022-07-26T12:39:00.687Z,20.50
2022-07-26T12:41:36.888Z,20.50
2022-07-26T12:44:05.270Z,20.50
2022-07-26T12:46:36.373Z,20.40
2022-07-26T12:49:04.749Z,20.50
2022-07-26T12:51:32.069Z,20.60
2022-07-26T12:54:06.568Z,20.40
2022-07-26T12:56:34.098Z,20.20
2022-07-26T12:59:01.648Z,20.30
2022-07-26T13:01:30.041Z,20.50
2022-07-26T13:03:58.886Z,20.60
2022-07-26T13:06:26.053Z,20.70
2022-07-26T13:08:53.865Z,20.70
2022-07-26T13:11:20.925Z,20.70
2022-07-26T13:13:48.483Z,20.70
2022-07-26T13:16:15.617Z,20.80
2022-07-26T13:18:42.761Z,20.90
2022-07-26T13:21:11.404Z,21.00
2022-07-26T13:23:38.397Z,21.10
2022-07-26T13:26:08.389Z,21.00
2022-07-26T13:28:37.775Z,21.30
2022-07-26T13:31:04.877Z,21.00
2022-07-26T13:33:33.784Z,21.30
2022-07-26T13:36:01.394Z,21.50
2022-07-26T13:38:28.970Z,21.60
2022-07-26T13:40:56.554Z,21.60
2022-07-26T13:43:24.432Z,21.70
2022-07-26T13:45:51.420Z,21.50
2022-07-26T13:48:18.428Z,21.60
2022-07-26T13:50:45.677Z,21.70
2022-07-26T13:53:12.949Z,21.50
2022-07-26T13:55:41.389Z,21.40
2022-07-26T13:58:10.243Z,21.70
2022-07-26T14:00:37.472Z,21.70
2022-07-26T14:03:06.088Z,21.80
2022-07-26T14:05:33.364Z,21.80
2022-07-26T14:08:00.485Z,22.10
2022-07-26T14:10:27.527Z,22.20
2022-07-26T14:12:54.743Z,22.40
2022-07-26T14:15:23.337Z,22.50
2022-07-26T14:17:52.198Z,22.30
2022-07-26T14:20:20.076Z,22.20
2022-07-26T14:22:48.097Z,22.10
2022-07-26T14:25:17.458Z,22.00
2022-07-26T14:27:45.876Z,21.90
2022-07-26T14:30:13.391Z,22.00
2022-07-26T14:32:41.835Z,22.20
2022-07-26T14:35:10.073Z,22.10
2022-07-26T14:37:42.165Z,22.20
2022-07-26T14:40:14.081Z,22.30
2022-07-26T14:42:41.460Z,22.10
2022-07-26T14:45:11.321Z,22.10
2022-07-26T14:47:38.768Z,22.10
2022-07-26T14:50:08.037Z,22.30
2022-07-26T14:52:47.465Z,22.80
2022-07-26T14:55:18.302Z,22.70
2022-07-26T14:57:50.108Z,23.00
2022-07-26T15:00:18.237Z,22.90
2022-07-26T15:02:47.444Z,22.80
2022-07-26T15:05:16.493Z,23.10
2022-07-26T15:07:44.555Z,22.90
2022-07-26T15:10:14.430Z,22.50
2022-07-26T15:12:42.527Z,22.60
2022-07-26T15:15:13.219Z,22.60
2022-07-26T15:17:40.550Z,22.50
2022-07-26T15:20:08.301Z,22.60
2022-07-26T15:22:35.378Z,22.70
2022-07-26T15:25:02.397Z,22.20
2022-07-26T15:27:29.351Z,22.40
2022-07-26T15:30:00.962Z,22.90
2022-07-26T15:32:30.483Z,23.10
2022-07-26T15:34:57.646Z,23.10
2022-07-26T15:37:24.923Z,23.40
2022-07-26T15:39:52.012Z,23.80
2022-07-26T15:42:19.349Z,23.60
2022-07-26T15:44:49.040Z,22.90
2022-07-26T15:47:36.894Z,22.70
2022-07-26T15:50:10.052Z,22.70
2022-07-26T15:52:39.554Z,22.60
2022-07-26T15:55:11.744Z,22.60
2022-07-26T15:57:39.180Z,22.40
2022-07-26T16:00:11.190Z,22.30
2022-07-26T16:02:39.924Z,22.10
2022-07-26T16:05:07.939Z,21.90
2022-07-26T16:07:35.111Z,22.00
2022-07-26T16:10:03.411Z,22.00
2022-07-26T16:12:30.388Z,21.80
2022-07-26T16:15:02.122Z,22.10
2022-07-26T16:17:31.265Z,22.20
2022-07-26T16:19:58.389Z,22.80
2022-07-26T16:22:25.808Z,22.90
2022-07-26T16:24:53.006Z,22.80
2022-07-26T16:27:20.022Z,22.40
2022-07-26T16:29:52.184Z,22.20
2022-07-26T16:32:21.633Z,21.70
2022-07-26T16:34:49.177Z,21.60
2022-07-26T16:37:16.210Z,21.50
2022-07-26T16:39:43.127Z,21.80
2022-07-26T16:42:10.261Z,21.90
2022-07-26T16:44:37.460Z,21.80
2022-07-26T16:47:04.869Z,21.80
2022-07-26T16:49:31.907Z,21.70
2022-07-26T16:51:59.024Z,21.50
2022-07-26T16:54:26.592Z,21.30
2022-07-26T16:56:54.625Z,21.50
2022-07-26T16:59:21.789Z,21.20
2022-07-26T17:01:48.967Z,21.10
2022-07-26T17:04:16.773Z,21.10
2022-07-26T17:07:01.668Z,21.00
2022-07-26T17:09:31.753Z,20.80
2022-07-26T17:12:02.855Z,21.00
2022-07-26T17:14:33.232Z,21.10
2022-07-26T17:17:00.550Z,21.20
2022-07-26T17:19:27.861Z,21.20
2022-07-26T17:21:54.928Z,21.10
2022-07-26T17:24:22.098Z,21.00
2022-07-26T17:26:49.755Z,21.10
2022-07-26T17:29:17.953Z,20.90
2022-07-26T17:31:44.972Z,21.00
2022-07-26T17:34:12.068Z,20.80
2022-07-26T17:36:39.033Z,20.80
2022-07-26T17:39:06.471Z,20.70
2022-07-26T17:41:35.385Z,20.80
2022-07-26T17:44:03.254Z,20.60
2022-07-26T17:46:36.259Z,20.40
2022-07-26T17:49:05.929Z,20.30
2022-07-26T17:51:35.312Z,20.40
2022-07-26T17:54:03.400Z,20.40
2022-07-26T17:56:31.300Z,20.40
2022-07-26T17:58:58.243Z,20.40
2022-07-26T18:01:25.773Z,20.50
2022-07-26T18:03:52.844Z,20.40
2022-07-26T18:06:19.997Z,20.50
2022-07-26T18:08:47.330Z,20.50
2022-07-26T18:11:14.680Z,20.60
2022-07-26T18:13:41.711Z,20.50
2022-07-26T18:16:09.041Z,20.30
2022-07-26T18:18:36.333Z,20.10
2022-07-26T18:21:05.924Z,20.00
2022-07-26T18:23:32.950Z,20.10
2022-07-26T18:26:00.000Z,20.20
2022-07-26T18:28:27.190Z,20.00
2022-07-26T18:30:54.681Z,20.00
2022-07-26T18:33:21.792Z,20.00
2022-07-26T18:35:48.789Z,20.10
2022-07-26T18:38:18.459Z,20.00
2022-07-26T18:40:45.728Z,19.80
2022-07-26T18:43:15.747Z,19.70
2022-07-26T18:45:42.772Z,19.80
2022-07-26T18:48:09.973Z,19.80
2022-07-26T18:50:40.087Z,19.80
2022-07-26T18:53:07.837Z,19.70
2022-07-26T18:55:34.947Z,19.70
2022-07-26T18:58:06.538Z,19.50
2022-07-26T19:00:34.001Z,19.50
2022-07-26T19:03:00.967Z,19.50
2022-07-26T19:05:35.267Z,19.50
2022-07-26T19:08:02.725Z,19.30
2022-07-26T19:10:32.583Z,19.20
2022-07-26T19:12:59.635Z,19.10
2022-07-26T19:15:29.921Z,19.10
2022-07-26T19:17:57.622Z,18.90
2022-07-26T19:20:24.698Z,18.90
2022-07-26T19:22:51.872Z,18.90
2022-07-26T19:25:19.061Z,18.80
2022-07-26T19:27:46.214Z,18.70
2022-07-26T19:30:14.067Z,18.80
2022-07-26T19:32:41.144Z,18.70
2022-07-26T19:37:52.842Z,18.70
2022-07-26T19:40:19.869Z,18.60
2022-07-26T19:42:47.131Z,18.50
2022-07-26T19:45:15.322Z,18.50
2022-07-26T19:47:45.600Z,18.50
2022-07-26T19:50:12.937Z,18.50
2022-07-26T19:52:42.560Z,18.40
2022-07-26T19:55:10.224Z,18.40
2022-07-26T19:57:38.649Z,18.40
2022-07-26T20:00:08.014Z,18.40
2022-07-26T20:02:45.111Z,18.40
2022-07-26T20:05:13.396Z,18.40
2022-07-26T20:07:40.715Z,18.40
2022-07-26T20:10:08.361Z,18.20
2022-07-26T20:12:37.902Z,18.20
2022-07-26T20:15:07.896Z,18.40
2022-07-26T20:17:35.668Z,18.30
2022-07-26T20:20:05.988Z,18.40
2022-07-26T20:22:33.281Z,18.30
2022-07-26T20:25:03.746Z,18.30
2022-07-26T20:27:30.936Z,18.40
2022-07-26T20:30:01.080Z,18.30
2022-07-26T20:32:28.568Z,18.20
2022-07-26T20:34:55.665Z,18.20
2022-07-26T20:37:22.632Z,18.30
2022-07-26T20:39:50.006Z,18.20
2022-07-26T20:42:21.960Z,18.20
2022-07-26T20:44:49.299Z,18.10
2022-07-26T20:47:16.326Z,18.10
2022-07-26T20:49:46.219Z,18.10
2022-07-26T20:52:13.265Z,18.00
2022-07-26T20:54:40.404Z,17.90
2022-07-26T20:57:07.490Z,17.90
2022-07-26T20:59:35.550Z,17.80
2022-07-26T21:02:03.205Z,17.80
2022-07-26T21:04:32.269Z,17.70
2022-07-26T21:07:00.430Z,17.70
2022-07-26T21:09:27.827Z,17.60
2022-07-26T21:11:55.162Z,17.50
2022-07-26T21:14:22.242Z,17.60
2022-07-26T21:16:50.324Z,17.50
2022-07-26T21:19:17.503Z,17.50
2022-07-26T21:21:44.459Z,17.50
2022-07-26T21:24:11.591Z,17.50
2022-07-26T21:26:38.641Z,17.40
2022-07-26T21:29:05.596Z,17.40
2022-07-26T21:31:32.531Z,17.30
2022-07-26T21:34:02.646Z,17.30
2022-07-26T21:36:29.681Z,17.30
2022-07-26T21:38:58.110Z,17.20
2022-07-26T21:41:25.015Z,17.10
2022-07-26T21:43:55.161Z,17.10
2022-07-26T21:46:22.149Z,17.10
2022-07-26T21:48:49.467Z,17.00
2022-07-26T21:51:16.969Z,17.00
2022-07-26T21:53:43.893Z,17.00
2022-07-26T21:56:11.582Z,17.00
2022-07-26T21:58:38.621Z,16.90
2022-07-26T22:01:11.248Z,16.90
2022-07-26T22:03:39.766Z,16.80
2022-07-26T22:06:07.690Z,16.90
2022-07-26T22:08:34.700Z,16.80
2022-07-26T22:11:01.975Z,16.80
2022-07-26T22:13:31.773Z,16.70
2022-07-26T22:15:58.739Z,16.70
2022-07-26T22:18:25.958Z,16.60
2022-07-26T22:20:53.154Z,16.70
2022-07-26T22:23:21.984Z,16.70
2022-07-26T22:25:49.335Z,16.60
2022-07-26T22:28:18.491Z,16.70
2022-07-26T22:30:45.961Z,16.50
2022-07-26T22:33:12.921Z,16.50
2022-07-26T22:35:39.871Z,16.50
2022-07-26T22:38:11.470Z,16.50
2022-07-26T22:40:39.865Z,16.40
2022-07-26T22:43:07.416Z,16.30
2022-07-26T22:45:35.241Z,16.30
2022-07-26T22:48:03.887Z,16.30
2022-07-26T22:50:31.412Z,16.30
2022-07-26T22:53:00.987Z,16.30
2022-07-26T22:55:28.603Z,16.10
2022-07-26T22:57:55.828Z,16.10
2022-07-26T23:00:22.909Z,16.20
2022-07-26T23:02:49.927Z,16.20
2022-07-26T23:05:16.823Z,16.10
2022-07-26T23:07:47.165Z,16.20
2022-07-26T23:10:16.817Z,16.20
2022-07-26T23:12:44.332Z,16.10
2022-07-26T23:15:11.717Z,16.20
2022-07-26T23:17:39.017Z,16.10
2022-07-26T23:20:07.475Z,16.10
2022-07-26T23:22:34.802Z,16.00
2022-07-26T23:25:01.967Z,15.90
2022-07-26T23:27:28.965Z,16.00
2022-07-26T23:29:56.044Z,15.90
2022-07-26T23:32:23.059Z,15.90
2022-07-26T23:34:49.989Z,15.80
2022-07-26T23:37:16.912Z,15.90
2022-07-26T23:39:43.830Z,15.90
2022-07-26T23:42:10.789Z,15.90
2022-07-26T23:44:37.739Z,15.80
2022-07-26T23:47:04.822Z,15.80
2022-07-26T23:49:31.902Z,15.80
2022-07-26T23:52:00.755Z,15.60
2022-07-26T23:54:27.800Z,15.70
2022-07-26T23:56:55.000Z,15.70
2022-07-26T23:59:22.187Z,15.60
